Latest Weather Observations for Scoresby

IDV60801

Issued at 7:32 pm EST Sunday 20 August 2017 (issued every 30 minutes, with the page automatically refreshed every 10 minutes)

About weather observations | Map of weather stations | Latest weather observations for VIC | Other Formats
Station Details ID: 086104 Name: SCORESBY RESEARCH INSTITUTE Lat: -37.87 Lon: 145.26 Height: 80.0 m
Data from the previous 72 hours. | See also: Recent months at Scoresby
Date/Time
EST
Temp
°C
App
Temp
°C
Dew
Point
°C
Rel
Hum
%
Delta-T
°C
Wind Press
QNH
hPa
Press
MSL
hPa
Rain since
9am
mm
Dir  Spd
km/h
Gust
km/h
Spd
kts
Gust
kts
20/07:30pm 6.3 4.9 3.5 82 1.2 CALM 0 0 0 0 - - 0.2
20/07:00pm 6.7 5.2 3.1 78 1.5 CALM 0 2 0 1 - - 0.2
20/06:30pm 6.6 5.0 2.7 76 1.6 CALM 0 2 0 1 - - 0.2
20/06:00pm 7.4 5.8 2.3 70 2.1 CALM 0 0 0 0 - - 0.2
20/05:30pm 10.3 8.6 1.7 55 3.6 CALM 0 2 0 1 - - 0.2
20/05:00pm 11.3 9.2 1.5 51 4.1 SSE 2 4 1 2 - - 0.2
20/04:30pm 12.4 10.0 2.3 50 4.4 SSW 4 7 2 4 - - 0.2
20/04:00pm 11.9 10.0 0.7 46 4.7 CALM 0 4 0 2 - - 0.2
20/03:30pm 12.4 10.6 1.1 46 4.8 CALM 0 0 0 0 - - 0.2
20/03:00pm 12.5 10.2 0.6 44 5.0 SE 2 4 1 2 - - 0.2
20/02:30pm 12.6 9.9 2.5 50 4.4 ENE 6 13 3 7 - - 0.0
20/02:00pm 11.9 9.4 1.3 48 4.5 SW 4 7 2 4 - - 0.0
20/01:30pm 11.8 9.7 2.0 51 4.2 SSW 2 7 1 4 - - 0.0
20/01:00pm 10.9 8.7 1.2 51 4.1 ENE 2 6 1 3 - - 0.0
20/12:30pm 10.6 8.9 1.9 55 3.7 CALM 0 2 0 1 - - 0.0
20/12:00pm 10.7 8.2 1.5 53 3.9 SW 4 11 2 6 - - 0.0
20/11:30am 10.6 8.8 3.2 60 3.2 NNW 2 7 1 4 - - 0.0
20/11:00am 10.0 7.9 4.0 66 2.7 N 4 7 2 4 - - 0.0
20/10:30am 9.1 6.5 4.1 71 2.2 NNE 7 9 4 5 - - 0.0
20/10:00am 7.9 5.0 4.5 79 1.5 NNE 9 13 5 7 - - 0.0
20/09:30am 7.0 4.4 4.1 82 1.3 NNE 7 13 4 7 - - 0.0
20/09:00am 5.5 2.8 3.5 87 0.8 NNE 7 11 4 6 - - 3.0
20/08:30am 4.5 1.7 3.0 90 0.6 NE 7 11 4 6 - - 3.0
20/08:00am 3.9 2.0 2.9 93 0.4 NE 2 6 1 3 - - 3.0
20/07:30am 2.3 0.5 1.3 93 0.4 CALM 0 4 0 2 - - 3.0
20/07:00am 2.2 -0.7 1.2 93 0.4 NE 6 9 3 5 - - 3.0
20/06:30am 2.8 1.1 1.8 93 0.4 CALM 0 2 0 1 - - 3.0
20/06:00am 3.0 0.2 2.0 93 0.4 NNE 6 9 3 5 - - 3.0
20/05:30am 3.1 0.7 2.1 93 0.4 NE 4 9 2 5 - - 3.0
20/05:00am 3.6 1.7 2.6 93 0.4 ENE 2 6 1 3 - - 3.0
20/04:30am 3.5 1.5 2.5 93 0.4 N 2 4 1 2 - - 3.0
20/04:00am 3.0 1.3 1.8 92 0.5 CALM 0 2 0 1 - - 3.0
20/03:30am 3.4 1.0 2.2 92 0.5 NE 4 6 2 3 - - 3.0
20/03:00am 4.0 1.7 2.8 92 0.5 ENE 4 7 2 4 - - 3.0
20/02:30am 4.4 2.2 3.4 93 0.4 NE 4 7 2 4 - - 3.0
20/02:00am 4.3 2.5 3.6 95 0.3 NE 2 6 1 3 - - 3.0
20/01:30am 3.6 2.1 2.9 95 0.3 CALM 0 0 0 0 - - 3.0
20/01:00am 3.3 1.7 2.6 95 0.3 CALM 0 0 0 0 - - 3.0
20/12:30am 2.5 0.8 1.8 95 0.3 CALM 0 0 0 0 - - 3.0
20/12:00am 2.8 1.1 2.1 95 0.3 CALM 0 0 0 0 - - 3.0
 
Date/Time
EST
Temp
°C
App
Temp
°C
Dew
Point
°C
Rel
Hum
%
Delta-T
°C
Wind Press
QNH
hPa
Press
MSL
hPa
Rain since
9am
mm
Dir  Spd
km/h
Gust
km/h
Spd
kts
Gust
kts
19/11:30pm 2.6 0.9 1.9 95 0.3 CALM 0 0 0 0 - - 3.0
19/11:00pm 2.2 0.4 1.5 95 0.3 CALM 0 0 0 0 - - 3.0
19/10:30pm 2.1 0.3 1.2 94 0.3 CALM 0 0 0 0 - - 3.0
19/10:00pm 2.7 1.0 1.8 94 0.4 CALM 0 0 0 0 - - 3.0
19/09:30pm 2.8 1.1 1.9 94 0.4 CALM 0 0 0 0 - - 3.0
19/09:00pm 3.3 1.7 2.3 93 0.4 CALM 0 0 0 0 - - 3.0
19/08:30pm 4.0 2.5 2.8 92 0.5 CALM 0 0 0 0 - - 3.0
19/08:00pm 4.3 2.8 2.8 90 0.6 CALM 0 0 0 0 - - 3.0
19/07:30pm 5.3 3.8 3.2 86 0.9 CALM 0 0 0 0 - - 3.0
19/07:00pm 7.0 5.5 3.1 76 1.6 CALM 0 0 0 0 - - 3.0
19/06:30pm 7.8 5.8 2.1 67 2.4 S 2 6 1 3 - - 3.0
19/06:00pm 8.4 5.6 2.0 64 2.7 SW 6 9 3 5 - - 3.0
19/05:30pm 10.1 7.3 3.4 63 2.9 S 7 9 4 5 - - 3.0
19/05:00pm 10.5 7.3 3.1 60 3.2 S 9 13 5 7 - - 3.0
19/04:30pm 10.4 8.3 3.7 63 3.0 S 4 9 2 5 - - 3.0
19/04:00pm 10.1 7.5 4.0 66 2.7 SE 7 11 4 6 - - 3.0
19/03:30pm 10.9 8.0 4.6 65 2.8 S 9 20 5 11 - - 3.0
19/03:00pm 9.8 6.8 4.2 68 2.5 S 9 13 5 7 - - 3.0
19/02:30pm 11.1 8.1 4.3 63 3.1 WSW 9 19 5 10 - - 3.0
19/02:00pm 10.2 7.6 4.4 67 2.6 SW 7 13 4 7 - - 3.0
19/01:30pm 8.1 6.2 4.7 79 1.5 SSW 4 6 2 3 - - 3.0
19/01:00pm 7.3 2.9 4.8 84 1.1 SW 17 30 9 16 - - 2.4
19/12:30pm 9.5 7.7 5.3 75 1.9 S 4 9 2 5 - - 2.2
19/12:00pm 7.7 6.3 5.7 87 0.9 SE 2 7 1 4 - - 2.2
19/11:30am 6.3 2.2 4.3 87 0.9 SSW 15 37 8 20 - - 1.8
19/11:00am 8.7 6.4 4.7 76 1.8 SSE 6 9 3 5 - - 0.6
19/10:30am 7.7 5.5 5.2 84 1.1 SSE 6 9 3 5 - - 0.6
19/10:00am 7.3 5.9 5.6 89 0.8 SE 2 6 1 3 - - 0.2
19/09:30am 7.0 5.9 5.3 89 0.8 CALM 0 2 0 1 - - 0.0
19/09:00am 6.7 5.2 4.9 88 0.8 WSW 2 7 1 4 - - 11.4
19/08:30am 6.0 4.9 5.0 93 0.4 CALM 0 0 0 0 - - 11.2
19/08:00am 5.3 4.1 4.6 95 0.3 CALM 0 0 0 0 - - 11.2
19/07:30am 4.8 3.5 4.1 95 0.3 CALM 0 0 0 0 - - 11.2
19/07:00am 4.8 2.7 4.1 95 0.3 S 4 7 2 4 - - 11.2
19/06:30am 3.8 2.3 2.9 94 0.4 CALM 0 0 0 0 - - 11.2
19/06:00am 3.7 2.1 2.5 92 0.5 CALM 0 0 0 0 - - 11.2
19/05:30am 5.3 3.0 4.6 95 0.3 SSE 6 15 3 8 - - 11.0
19/05:00am 4.8 3.5 3.9 94 0.4 CALM 0 0 0 0 - - 10.8
19/04:30am 5.3 4.0 4.1 92 0.5 CALM 0 0 0 0 - - 10.8
19/04:00am 5.8 3.8 4.4 91 0.6 W 4 7 2 4 - - 10.8
19/03:30am 6.0 3.5 4.6 91 0.6 WSW 7 13 4 7 - - 10.6
19/03:00am 6.0 4.1 5.1 94 0.4 SW 4 6 2 3 - - 10.4
19/02:30am 5.2 3.9 4.0 92 0.5 CALM 0 2 0 1 - - 10.4
19/02:00am 6.3 4.4 5.1 92 0.5 W 4 11 2 6 - - 10.4
19/01:30am 6.2 4.3 4.7 90 0.7 WSW 4 9 2 5 - - 9.4
19/01:00am 6.5 4.6 5.0 90 0.7 W 4 7 2 4 - - 9.4
19/12:30am 6.6 4.1 4.9 89 0.7 W 7 15 4 8 - - 9.4
19/12:00am 6.3 4.1 5.1 92 0.5 WSW 6 9 3 5 - - 9.4
 
Date/Time
EST
Temp
°C
App
Temp
°C
Dew
Point
°C
Rel
Hum
%
Delta-T
°C
Wind Press
QNH
hPa
Press
MSL
hPa
Rain since
9am
mm
Dir  Spd
km/h
Gust
km/h
Spd
kts
Gust
kts
18/11:30pm 6.5 3.7 5.3 92 0.5 WSW 9 17 5 9 - - 9.4
18/11:00pm 6.5 4.3 5.1 91 0.6 WSW 6 11 3 6 - - 9.4
18/10:30pm 6.6 3.4 5.1 90 0.7 WSW 11 24 6 13 - - 9.4
18/10:00pm 6.8 4.1 5.4 91 0.6 W 9 13 5 7 - - 9.0
18/09:30pm 6.6 3.0 5.1 90 0.7 W 13 19 7 10 - - 8.2
18/09:00pm 6.8 4.6 5.1 89 0.8 WSW 6 11 3 6 - - 6.0
18/08:30pm 7.2 4.5 5.7 90 0.7 WSW 9 17 5 9 - - 5.0
18/08:00pm 7.1 5.0 5.6 90 0.7 W 6 13 3 7 - - 4.6
18/07:30pm 6.7 4.4 5.0 89 0.7 W 6 11 3 6 - - 4.0
18/07:00pm 7.4 3.8 5.2 86 1.0 WSW 13 39 7 21 - - 2.8
18/06:30pm 7.9 5.2 5.7 86 1.0 W 9 15 5 8 - - 0.8
18/06:00pm 7.8 4.3 5.3 84 1.1 WSW 13 22 7 12 - - 0.8
18/05:30pm 8.1 3.7 4.7 79 1.5 W 17 26 9 14 - - 0.4
18/05:00pm 9.6 5.4 3.6 66 2.6 W 15 26 8 14 - - 0.0
18/04:30pm 9.6 4.6 3.8 67 2.5 W 19 33 10 18 - - 0.0
18/04:00pm 10.4 6.2 3.9 64 2.9 W 15 30 8 16 - - 0.0
18/03:30pm 10.3 5.4 4.2 66 2.7 WSW 19 37 10 20 - - 0.0
18/03:00pm 9.3 4.4 5.1 75 1.9 W 20 32 11 17 - - 0.0
18/02:30pm 11.9 7.1 4.9 62 3.2 W 19 39 10 21 - - 0.0
18/02:00pm 10.2 5.1 4.1 66 2.7 W 20 35 11 19 - - 0.0
18/01:30pm 9.6 4.4 3.4 65 2.7 W 20 33 11 18 - - 0.0
18/01:00pm 9.9 3.9 3.4 64 2.8 WSW 24 43 13 23 - - 0.0
18/12:30pm 10.2 3.8 3.3 62 3.0 W 26 39 14 21 - - 0.0
18/12:00pm 10.7 5.0 3.0 59 3.4 WNW 22 39 12 21 - - 0.0
18/11:30am 9.9 4.7 3.4 64 2.8 WNW 20 39 11 21 - - 0.0
18/11:00am 10.2 5.0 3.5 63 2.9 WNW 20 32 11 17 - - 0.0
18/10:30am 8.9 3.7 3.7 70 2.3 W 20 32 11 17 - - 0.0
18/10:00am 9.1 3.0 2.7 64 2.7 W 24 35 13 19 - - 0.0
18/09:30am 9.0 2.9 2.8 65 2.6 WNW 24 43 13 23 - - 0.0
18/09:18am 8.7 1.8 2.5 65 2.6 WNW 28 50 15 27 - - 0.0
18/09:00am 9.0 3.7 3.2 67 2.5 WNW 20 35 11 19 - - 5.8
18/08:30am 8.3 3.6 3.2 70 2.2 WNW 17 32 9 17 - - 5.8
18/08:00am 7.8 3.1 3.1 72 2.0 WNW 17 33 9 18 - - 5.8
18/07:30am 8.0 2.9 3.1 71 2.1 WNW 19 33 10 18 - - 5.8
18/07:00am 8.1 3.0 2.8 69 2.2 WNW 19 30 10 16 - - 5.8
18/06:30am 8.2 3.5 2.9 69 2.2 WNW 17 30 9 16 - - 5.8
18/06:00am 8.4 3.6 2.6 67 2.4 NW 17 32 9 17 - - 5.8
18/05:30am 8.4 4.0 2.6 67 2.4 WNW 15 28 8 15 - - 5.8
18/05:00am 8.3 4.2 2.5 67 2.4 NW 13 24 7 13 - - 5.8
18/04:30am 8.1 4.8 2.6 68 2.3 NNW 9 15 5 8 - - 5.8
18/04:00am 8.2 4.2 2.7 68 2.3 NW 13 24 7 13 - - 5.8
18/03:30am 7.8 4.2 3.1 72 2.0 NNW 11 20 6 11 - - 5.8
18/03:00am 7.8 4.6 3.3 73 1.9 N 9 17 5 9 - - 5.8
18/02:30am 8.1 5.3 3.4 72 2.0 NNW 7 13 4 7 - - 5.8
18/02:00am 8.0 5.5 3.7 74 1.9 N 6 9 3 5 - - 5.8
18/01:30am 8.2 5.0 3.3 71 2.1 N 9 13 5 7 - - 5.8
18/01:00am 7.9 5.2 3.9 76 1.7 NNE 7 15 4 8 - - 5.8
18/12:30am 7.0 4.4 4.1 82 1.3 NNE 7 17 4 9 - - 5.8
18/12:00am 6.9 4.3 4.2 83 1.2 NNE 7 9 4 5 - - 5.8
 
Date/Time
EST
Temp
°C
App
Temp
°C
Dew
Point
°C
Rel
Hum
%
Delta-T
°C
Wind Press
QNH
hPa
Press
MSL
hPa
Rain since
9am
mm
Dir  Spd
km/h
Gust
km/h
Spd
kts
Gust
kts
17/11:30pm 6.9 4.4 4.0 82 1.2 NE 6 9 3 5 - - 5.8
17/11:00pm 7.6 5.1 3.6 76 1.7 NNE 6 11 3 6 - - 5.8
17/10:30pm 7.4 4.7 3.8 78 1.5 NNE 7 15 4 8 - - 5.8
17/10:00pm 7.5 4.5 3.9 78 1.6 NNE 9 20 5 11 - - 5.8
17/09:30pm 7.7 4.4 4.5 80 1.4 NNE 11 17 6 9 - - 5.8
17/09:00pm 8.0 5.6 5.1 82 1.3 N 7 15 4 8 - - 5.8
17/08:30pm 7.9 5.2 5.4 84 1.1 N 9 15 5 8 - - 5.8
17/08:00pm 7.7 5.9 5.3 85 1.1 N 4 9 2 5 - - 5.8

Other Formats:

Comma delimited format used in spreadsheet applications
http://www.bom.gov.au/fwo/IDV60801/IDV60801.95867.axf

JavaScript Object Notation format (JSON) in row-major order
http://www.bom.gov.au/fwo/IDV60801/IDV60801.95867.json